sensor_id;sensor_type;location;lat;lon;timestamp;temperature;humidity
34472;DHT22;20710;49.976;19.836;2022-09-24T00:02:56;5.71;83.66
34472;DHT22;20710;49.976;19.836;2022-09-24T00:08:57;5.57;83.23
34472;DHT22;20710;49.976;19.836;2022-09-24T00:14:59;5.58;83.54
34472;DHT22;20710;49.976;19.836;2022-09-24T00:21:09;5.54;83.56
34472;DHT22;20710;49.976;19.836;2022-09-24T00:27:05;5.52;83.33
34472;DHT22;20710;49.976;19.836;2022-09-24T00:33:07;5.41;83.01
34472;DHT22;20710;49.976;19.836;2022-09-24T00:39:08;5.35;83.07
34472;DHT22;20710;49.976;19.836;2022-09-24T00:45:10;5.34;83.32
34472;DHT22;20710;49.976;19.836;2022-09-24T00:51:16;5.44;82.97
34472;DHT22;20710;49.976;19.836;2022-09-24T00:57:17;5.62;83.25
34472;DHT22;20710;49.976;19.836;2022-09-24T01:03:22;5.61;83.68
34472;DHT22;20710;49.976;19.836;2022-09-24T01:09:25;5.57;83.45
34472;DHT22;20710;49.976;19.836;2022-09-24T01:15:32;5.45;83.45
34472;DHT22;20710;49.976;19.836;2022-09-24T01:21:53;5.38;83.18
34472;DHT22;20710;49.976;19.836;2022-09-24T01:34:47;5.23;82.93
34472;DHT22;20710;49.976;19.836;2022-09-24T01:40:49;5.14;82.49
34472;DHT22;20710;49.976;19.836;2022-09-24T01:46:52;5.17;83.24
34472;DHT22;20710;49.976;19.836;2022-09-24T01:53:04;5.09;82.96
34472;DHT22;20710;49.976;19.836;2022-09-24T01:59:24;5.09;83.10
34472;DHT22;20710;49.976;19.836;2022-09-24T02:05:57;5.00;82.85
34472;DHT22;20710;49.976;19.836;2022-09-24T02:12:26;4.91;82.49
34472;DHT22;20710;49.976;19.836;2022-09-24T02:18:28;4.84;82.34
34472;DHT22;20710;49.976;19.836;2022-09-24T02:24:59;4.84;83.18
34472;DHT22;20710;49.976;19.836;2022-09-24T02:30:50;4.69;83.09
34472;DHT22;20710;49.976;19.836;2022-09-24T02:37:14;4.60;82.91
34472;DHT22;20710;49.976;19.836;2022-09-24T02:43:02;4.49;82.54
34472;DHT22;20710;49.976;19.836;2022-09-24T02:49:04;4.46;82.65
34472;DHT22;20710;49.976;19.836;2022-09-24T02:55:06;4.39;82.70
34472;DHT22;20710;49.976;19.836;2022-09-24T03:01:08;4.37;83.05
34472;DHT22;20710;49.976;19.836;2022-09-24T03:07:09;4.30;82.99
34472;DHT22;20710;49.976;19.836;2022-09-24T03:13:12;4.29;83.09
34472;DHT22;20710;49.976;19.836;2022-09-24T03:19:14;4.36;83.05
34472;DHT22;20710;49.976;19.836;2022-09-24T03:25:15;4.50;83.21
34472;DHT22;20710;49.976;19.836;2022-09-24T03:31:17;4.57;83.71
34472;DHT22;20710;49.976;19.836;2022-09-24T03:37:19;4.50;83.27
34472;DHT22;20710;49.976;19.836;2022-09-24T03:43:21;4.44;83.15
34472;DHT22;20710;49.976;19.836;2022-09-24T03:49:22;4.46;83.20
34472;DHT22;20710;49.976;19.836;2022-09-24T03:55:24;4.51;83.29
34472;DHT22;20710;49.976;19.836;2022-09-24T04:01:26;4.51;83.50
34472;DHT22;20710;49.976;19.836;2022-09-24T04:07:27;4.56;83.50
34472;DHT22;20710;49.976;19.836;2022-09-24T04:13:29;4.56;83.67
34472;DHT22;20710;49.976;19.836;2022-09-24T04:19:30;4.57;83.88
34472;DHT22;20710;49.976;19.836;2022-09-24T04:25:32;4.60;84.00
34472;DHT22;20710;49.976;19.836;2022-09-24T04:31:34;4.65;84.70
34472;DHT22;20710;49.976;19.836;2022-09-24T04:37:36;4.68;84.74
34472;DHT22;20710;49.976;19.836;2022-09-24T04:43:38;4.77;84.66
34472;DHT22;20710;49.976;19.836;2022-09-24T04:49:40;4.89;84.69
34472;DHT22;20710;49.976;19.836;2022-09-24T04:55:44;5.00;84.76
34472;DHT22;20710;49.976;19.836;2022-09-24T05:01:45;5.13;84.64
34472;DHT22;20710;49.976;19.836;2022-09-24T05:07:47;5.26;84.64
34472;DHT22;20710;49.976;19.836;2022-09-24T05:13:49;5.22;84.31
34472;DHT22;20710;49.976;19.836;2022-09-24T05:19:50;5.19;84.16
34472;DHT22;20710;49.976;19.836;2022-09-24T05:25:52;5.17;84.36
34472;DHT22;20710;49.976;19.836;2022-09-24T05:32:15;5.24;84.48
34472;DHT22;20710;49.976;19.836;2022-09-24T05:38:17;5.40;84.54
34472;DHT22;20710;49.976;19.836;2022-09-24T05:44:19;5.57;84.46
34472;DHT22;20710;49.976;19.836;2022-09-24T05:50:22;5.74;84.60
34472;DHT22;20710;49.976;19.836;2022-09-24T05:56:24;5.92;84.84
34472;DHT22;20710;49.976;19.836;2022-09-24T06:02:25;6.30;84.80
34472;DHT22;20710;49.976;19.836;2022-09-24T06:08:29;6.53;84.39
34472;DHT22;20710;49.976;19.836;2022-09-24T06:14:31;6.72;84.08
34472;DHT22;20710;49.976;19.836;2022-09-24T06:20:33;6.96;84.34
34472;DHT22;20710;49.976;19.836;2022-09-24T06:26:34;7.27;84.61
34472;DHT22;20710;49.976;19.836;2022-09-24T06:32:36;7.63;84.70
34472;DHT22;20710;49.976;19.836;2022-09-24T06:38:37;7.86;84.62
34472;DHT22;20710;49.976;19.836;2022-09-24T06:44:42;8.05;84.43
34472;DHT22;20710;49.976;19.836;2022-09-24T06:50:43;8.24;84.31
34472;DHT22;20710;49.976;19.836;2022-09-24T06:56:45;8.36;83.97
34472;DHT22;20710;49.976;19.836;2022-09-24T07:02:50;8.57;84.02
34472;DHT22;20710;49.976;19.836;2022-09-24T07:08:51;8.71;84.13
34472;DHT22;20710;49.976;19.836;2022-09-24T07:14:53;8.93;83.76
34472;DHT22;20710;49.976;19.836;2022-09-24T07:20:55;9.16;83.39
34472;DHT22;20710;49.976;19.836;2022-09-24T07:26:56;9.42;82.99
34472;DHT22;20710;49.976;19.836;2022-09-24T07:32:58;9.73;83.10
34472;DHT22;20710;49.976;19.836;2022-09-24T07:39:00;9.94;82.77
34472;DHT22;20710;49.976;19.836;2022-09-24T07:45:03;10.13;81.87
34472;DHT22;20710;49.976;19.836;2022-09-24T07:51:10;10.33;81.63
34472;DHT22;20710;49.976;19.836;2022-09-24T07:57:12;10.51;80.96
34472;DHT22;20710;49.976;19.836;2022-09-24T08:03:13;10.71;80.96
34472;DHT22;20710;49.976;19.836;2022-09-24T08:09:15;11.02;80.81
34472;DHT22;20710;49.976;19.836;2022-09-24T08:15:19;11.25;80.36
34472;DHT22;20710;49.976;19.836;2022-09-24T08:21:22;11.47;80.11
34472;DHT22;20710;49.976;19.836;2022-09-24T08:27:23;11.79;79.97
34472;DHT22;20710;49.976;19.836;2022-09-24T08:33:26;11.99;79.62
34472;DHT22;20710;49.976;19.836;2022-09-24T08:39:28;12.19;79.50
34472;DHT22;20710;49.976;19.836;2022-09-24T08:45:33;12.45;79.16
34472;DHT22;20710;49.976;19.836;2022-09-24T09:04:44;13.55;77.18
34472;DHT22;20710;49.976;19.836;2022-09-24T09:10:45;13.82;76.92
34472;DHT22;20710;49.976;19.836;2022-09-24T09:17:03;14.10;75.69
34472;DHT22;20710;49.976;19.836;2022-09-24T09:29:19;14.90;74.60
34472;DHT22;20710;49.976;19.836;2022-09-24T09:41:52;15.65;72.79
34472;DHT22;20710;49.976;19.836;2022-09-24T09:47:56;15.82;72.09
34472;DHT22;20710;49.976;19.836;2022-09-24T09:54:00;15.83;71.07
34472;DHT22;20710;49.976;19.836;2022-09-24T10:00:03;15.83;70.57
34472;DHT22;20710;49.976;19.836;2022-09-24T10:06:22;15.80;70.78
34472;DHT22;20710;49.976;19.836;2022-09-24T10:12:20;15.86;69.51
34472;DHT22;20710;49.976;19.836;2022-09-24T10:18:42;15.97;69.01
34472;DHT22;20710;49.976;19.836;2022-09-24T10:24:44;16.07;67.69
34472;DHT22;20710;49.976;19.836;2022-09-24T10:36:58;16.27;63.90
34472;DHT22;20710;49.976;19.836;2022-09-24T10:43:02;16.21;65.16
34472;DHT22;20710;49.976;19.836;2022-09-24T11:34:32;16.37;60.88
34472;DHT22;20710;49.976;19.836;2022-09-24T11:41:00;16.39;62.16
34472;DHT22;20710;49.976;19.836;2022-09-24T11:47:28;16.54;58.68
34472;DHT22;20710;49.976;19.836;2022-09-24T12:00:13;16.86;59.22
34472;DHT22;20710;49.976;19.836;2022-09-24T12:06:28;17.01;56.80
34472;DHT22;20710;49.976;19.836;2022-09-24T12:12:36;17.01;58.49
34472;DHT22;20710;49.976;19.836;2022-09-24T12:19:24;16.99;57.20
34472;DHT22;20710;49.976;19.836;2022-09-24T12:25:41;16.99;56.70
34472;DHT22;20710;49.976;19.836;2022-09-24T12:32:10;16.91;56.63
34472;DHT22;20710;49.976;19.836;2022-09-24T12:38:36;16.80;56.87
34472;DHT22;20710;49.976;19.836;2022-09-24T12:44:52;16.65;57.82
34472;DHT22;20710;49.976;19.836;2022-09-24T12:50:57;16.51;58.16
34472;DHT22;20710;49.976;19.836;2022-09-24T12:57:19;16.37;58.66
34472;DHT22;20710;49.976;19.836;2022-09-24T13:03:35;16.25;59.20
34472;DHT22;20710;49.976;19.836;2022-09-24T13:09:38;16.25;59.39
34472;DHT22;20710;49.976;19.836;2022-09-24T13:15:41;16.27;59.62
34472;DHT22;20710;49.976;19.836;2022-09-24T13:21:51;16.24;59.29
34472;DHT22;20710;49.976;19.836;2022-09-24T13:28:18;16.20;59.28
34472;DHT22;20710;49.976;19.836;2022-09-24T13:34:21;16.09;59.54
34472;DHT22;20710;49.976;19.836;2022-09-24T13:40:28;16.04;60.06
34472;DHT22;20710;49.976;19.836;2022-09-24T13:46:26;16.07;59.71
34472;DHT22;20710;49.976;19.836;2022-09-24T13:52:52;16.01;59.64
34472;DHT22;20710;49.976;19.836;2022-09-24T13:59:04;15.97;59.79
34472;DHT22;20710;49.976;19.836;2022-09-24T14:05:16;15.98;59.93
34472;DHT22;20710;49.976;19.836;2022-09-24T14:11:21;16.03;59.96
34472;DHT22;20710;49.976;19.836;2022-09-24T14:17:27;15.98;60.14
34472;DHT22;20710;49.976;19.836;2022-09-24T14:23:34;15.96;60.25
34472;DHT22;20710;49.976;19.836;2022-09-24T14:29:44;16.00;60.07
34472;DHT22;20710;49.976;19.836;2022-09-24T14:35:47;16.06;60.00
34472;DHT22;20710;49.976;19.836;2022-09-24T14:41:50;16.07;60.11
34472;DHT22;20710;49.976;19.836;2022-09-24T14:48:01;16.13;60.24
34472;DHT22;20710;49.976;19.836;2022-09-24T15:00:46;16.17;60.58
34472;DHT22;20710;49.976;19.836;2022-09-24T15:06:48;16.07;60.49
34472;DHT22;20710;49.976;19.836;2022-09-24T15:12:50;15.96;60.97
34472;DHT22;20710;49.976;19.836;2022-09-24T15:19:18;15.83;60.79
34472;DHT22;20710;49.976;19.836;2022-09-24T15:25:20;15.73;60.74
34472;DHT22;20710;49.976;19.836;2022-09-24T15:31:22;15.62;60.36
34472;DHT22;20710;49.976;19.836;2022-09-24T15:37:27;15.54;60.89
34472;DHT22;20710;49.976;19.836;2022-09-24T15:43:28;15.34;61.43
34472;DHT22;20710;49.976;19.836;2022-09-24T15:49:29;15.09;61.90
34472;DHT22;20710;49.976;19.836;2022-09-24T15:55:33;14.79;62.45
34472;DHT22;20710;49.976;19.836;2022-09-24T16:01:36;14.74;63.22
34472;DHT22;20710;49.976;19.836;2022-09-24T16:07:38;14.74;63.30
34472;DHT22;20710;49.976;19.836;2022-09-24T16:13:39;14.62;63.25
34472;DHT22;20710;49.976;19.836;2022-09-24T16:19:41;14.48;63.61
34472;DHT22;20710;49.976;19.836;2022-09-24T16:25:55;14.34;64.13
34472;DHT22;20710;49.976;19.836;2022-09-24T16:31:58;14.13;64.90
34472;DHT22;20710;49.976;19.836;2022-09-24T16:38:02;13.93;65.70
34472;DHT22;20710;49.976;19.836;2022-09-24T16:44:03;13.74;66.89
34472;DHT22;20710;49.976;19.836;2022-09-24T16:50:06;13.57;67.85
34472;DHT22;20710;49.976;19.836;2022-09-24T16:56:10;13.44;68.76
34472;DHT22;20710;49.976;19.836;2022-09-24T17:02:13;13.22;69.73
34472;DHT22;20710;49.976;19.836;2022-09-24T17:08:15;12.96;70.15
34472;DHT22;20710;49.976;19.836;2022-09-24T17:14:16;12.83;70.79
34472;DHT22;20710;49.976;19.836;2022-09-24T17:20:18;12.75;71.21
34472;DHT22;20710;49.976;19.836;2022-09-24T17:26:20;12.74;71.56
34472;DHT22;20710;49.976;19.836;2022-09-24T17:32:23;12.68;71.85
34472;DHT22;20710;49.976;19.836;2022-09-24T17:38:24;12.65;72.01
34472;DHT22;20710;49.976;19.836;2022-09-24T17:44:25;12.61;72.57
34472;DHT22;20710;49.976;19.836;2022-09-24T17:50:26;12.51;73.14
34472;DHT22;20710;49.976;19.836;2022-09-24T17:56:31;12.45;73.97
34472;DHT22;20710;49.976;19.836;2022-09-24T18:02:33;12.33;74.09
34472;DHT22;20710;49.976;19.836;2022-09-24T18:08:36;12.19;74.00
34472;DHT22;20710;49.976;19.836;2022-09-24T18:14:37;12.03;74.49
34472;DHT22;20710;49.976;19.836;2022-09-24T18:20:39;11.86;74.94
34472;DHT22;20710;49.976;19.836;2022-09-24T18:26:42;11.72;75.95
34472;DHT22;20710;49.976;19.836;2022-09-24T18:32:44;11.61;76.01
34472;DHT22;20710;49.976;19.836;2022-09-24T18:38:46;11.49;76.67
34472;DHT22;20710;49.976;19.836;2022-09-24T18:44:47;11.36;76.97
34472;DHT22;20710;49.976;19.836;2022-09-24T18:50:51;11.25;77.38
34472;DHT22;20710;49.976;19.836;2022-09-24T18:56:52;11.13;77.66
34472;DHT22;20710;49.976;19.836;2022-09-24T19:02:55;11.03;77.87
34472;DHT22;20710;49.976;19.836;2022-09-24T19:08:57;10.84;78.29
34472;DHT22;20710;49.976;19.836;2022-09-24T19:14:58;10.70;78.62
34472;DHT22;20710;49.976;19.836;2022-09-24T19:21:01;10.59;79.39
34472;DHT22;20710;49.976;19.836;2022-09-24T19:27:03;10.48;79.66
34472;DHT22;20710;49.976;19.836;2022-09-24T19:33:05;10.43;79.95
34472;DHT22;20710;49.976;19.836;2022-09-24T19:39:10;10.36;80.34
34472;DHT22;20710;49.976;19.836;2022-09-24T19:45:12;10.23;80.50
34472;DHT22;20710;49.976;19.836;2022-09-24T19:51:19;10.08;80.34
34472;DHT22;20710;49.976;19.836;2022-09-24T19:57:21;10.11;80.75
34472;DHT22;20710;49.976;19.836;2022-09-24T20:03:22;10.06;80.80
34472;DHT22;20710;49.976;19.836;2022-09-24T20:09:25;10.00;81.02
34472;DHT22;20710;49.976;19.836;2022-09-24T20:15:27;9.88;81.13
34472;DHT22;20710;49.976;19.836;2022-09-24T20:21:32;9.80;81.44
34472;DHT22;20710;49.976;19.836;2022-09-24T20:27:38;9.70;81.58
34472;DHT22;20710;49.976;19.836;2022-09-24T20:33:51;9.60;81.59
34472;DHT22;20710;49.976;19.836;2022-09-24T20:39:53;9.47;81.74
34472;DHT22;20710;49.976;19.836;2022-09-24T20:45:54;9.29;81.76
34472;DHT22;20710;49.976;19.836;2022-09-24T20:51:56;9.21;81.76
34472;DHT22;20710;49.976;19.836;2022-09-24T20:57:57;9.15;82.38
34472;DHT22;20710;49.976;19.836;2022-09-24T21:04:01;9.02;82.43
34472;DHT22;20710;49.976;19.836;2022-09-24T21:10:03;8.94;82.48
34472;DHT22;20710;49.976;19.836;2022-09-24T21:16:04;8.87;82.21
34472;DHT22;20710;49.976;19.836;2022-09-24T21:22:06;8.84;82.29
34472;DHT22;20710;49.976;19.836;2022-09-24T21:28:07;8.80;82.61
34472;DHT22;20710;49.976;19.836;2022-09-24T21:34:12;8.74;82.76
34472;DHT22;20710;49.976;19.836;2022-09-24T21:40:14;8.67;82.60
34472;DHT22;20710;49.976;19.836;2022-09-24T21:46:16;8.57;82.83
34472;DHT22;20710;49.976;19.836;2022-09-24T21:52:17;8.48;83.03
34472;DHT22;20710;49.976;19.836;2022-09-24T21:58:18;8.36;82.79
34472;DHT22;20710;49.976;19.836;2022-09-24T22:04:21;8.27;82.96
34472;DHT22;20710;49.976;19.836;2022-09-24T22:10:23;8.17;83.12
34472;DHT22;20710;49.976;19.836;2022-09-24T22:16:27;8.11;83.20
34472;DHT22;20710;49.976;19.836;2022-09-24T22:22:28;8.04;83.18
34472;DHT22;20710;49.976;19.836;2022-09-24T22:28:30;8.03;83.23
34472;DHT22;20710;49.976;19.836;2022-09-24T22:34:32;7.96;83.60
34472;DHT22;20710;49.976;19.836;2022-09-24T22:40:51;7.87;83.51
34472;DHT22;20710;49.976;19.836;2022-09-24T22:46:53;7.84;83.59
34472;DHT22;20710;49.976;19.836;2022-09-24T22:52:54;7.84;83.25
34472;DHT22;20710;49.976;19.836;2022-09-24T22:58:59;7.86;83.71
34472;DHT22;20710;49.976;19.836;2022-09-24T23:05:01;7.86;83.58
34472;DHT22;20710;49.976;19.836;2022-09-24T23:11:13;7.79;83.59
34472;DHT22;20710;49.976;19.836;2022-09-24T23:17:15;7.71;83.79
34472;DHT22;20710;49.976;19.836;2022-09-24T23:23:16;7.73;83.79
34472;DHT22;20710;49.976;19.836;2022-09-24T23:29:18;7.69;83.97
34472;DHT22;20710;49.976;19.836;2022-09-24T23:35:19;7.65;83.73
34472;DHT22;20710;49.976;19.836;2022-09-24T23:41:21;7.59;83.84
34472;DHT22;20710;49.976;19.836;2022-09-24T23:47:22;7.60;83.81
34472;DHT22;20710;49.976;19.836;2022-09-24T23:53:25;7.69;84.28
34472;DHT22;20710;49.976;19.836;2022-09-24T23:59:26;7.70;84.13
